首页
METAR-TAF:

METAR-TAF

机场 :

Falls International Airport

國際瀑布城, 明尼蘇達州, 美国

纬度: 48-33-43N, 经度: 093-23-52W, 海拔: 361米

当前天气观测

该预报发布于43分钟前的21:54 UTC
风速13节,风向西北,有时为25节阵风
温度 23°C
湿度 47%
气压 1007 hPa
能見度: 16.1公里
阴天层高于8500英尺

METAR: KINL 252154Z AUTO 31013G25KT 10SM OVC085 23/11 A2974 RMK AO2 PK WND 27029/2111 SLP068 T02330106

时间: 17:37 (22:37 UTC)

预报

该预报发布于5小时和11分钟前的17:26 UTC
预报有效从25日的 18点(UTC)到 26日的 18点(UTC)
风速13节,风向西,有时为25节阵风
能見度: 10公里
天空无云
从 25日的 2200点(UTC)
风速14节,风向西转西北,有时为23节阵风
能見度: 10公里
散云层高于10000英尺
从 26日的 0200点(UTC)
风速8节,风向西北
能見度: 10公里
多云层高于5000英尺
从 26日的 0500点(UTC)
风速4节,风向多变
能見度: 10公里
阴天层高于2400英尺
附近有阵雨
从 26日的 0700点(UTC)
风速5节,风向北转东北
能見度: 10公里
阴天层高于1600英尺
小阵雨
从 26日的 1100点(UTC)
风速5节,风向
能見度: 10公里
阴天层高于1800英尺

TAF: KINL 251726Z 2518/2618 28013G25KT P6SM SKC FM252200 30014G23KT P6SM SCT100 FM260200 31008KT P6SM BKN050 FM260500 VRB04KT P6SM VCSH OVC024 FM260700 03005KT P6SM -SHRA OVC016 FM261100 36005KT P6SM OVC018

超过4000个机场的气象观测和天气预报(METAR&TAF报告)。

可查询的气象台以黄色和红色小点在地图上表示。

将鼠标移到小点上方,可查看气象台名称。

然后点击查看天气观测和预报。

如需切换地图:点击带黑十字的绿色按钮放大地图;点击带横线的绿色按钮缩小地图;或者点击绿色箭头查看邻近地区的地图。


METAR-TAF: